sensor_id;sensor_type;location;lat;lon;timestamp;P1;durP1;ratioP1;P2;durP2;ratioP2
13712;SDS011;6928;50.546;7.120;2022-08-21T00:01:06;5.68;;;2.08;;
13712;SDS011;6928;50.546;7.120;2022-08-21T00:03:37;4.30;;;2.13;;
13712;SDS011;6928;50.546;7.120;2022-08-21T00:06:05;4.68;;;2.08;;
13712;SDS011;6928;50.546;7.120;2022-08-21T00:08:31;3.60;;;1.98;;
13712;SDS011;6928;50.546;7.120;2022-08-21T00:10:58;8.57;;;2.20;;
13712;SDS011;6928;50.546;7.120;2022-08-21T00:13:25;3.15;;;1.85;;
13712;SDS011;6928;50.546;7.120;2022-08-21T00:15:52;4.13;;;1.70;;
13712;SDS011;6928;50.546;7.120;2022-08-21T00:18:20;3.58;;;1.90;;
13712;SDS011;6928;50.546;7.120;2022-08-21T00:20:48;2.25;;;1.90;;
13712;SDS011;6928;50.546;7.120;2022-08-21T00:23:15;3.40;;;1.70;;
13712;SDS011;6928;50.546;7.120;2022-08-21T00:25:42;4.53;;;2.35;;
13712;SDS011;6928;50.546;7.120;2022-08-21T00:28:11;5.78;;;1.85;;
13712;SDS011;6928;50.546;7.120;2022-08-21T00:30:39;2.83;;;2.05;;
13712;SDS011;6928;50.546;7.120;2022-08-21T00:33:06;3.58;;;2.00;;
13712;SDS011;6928;50.546;7.120;2022-08-21T00:35:36;5.28;;;2.08;;
13712;SDS011;6928;50.546;7.120;2022-08-21T00:38:07;3.35;;;2.00;;
13712;SDS011;6928;50.546;7.120;2022-08-21T00:40:36;3.40;;;2.00;;
13712;SDS011;6928;50.546;7.120;2022-08-21T00:43:08;6.88;;;2.15;;
13712;SDS011;6928;50.546;7.120;2022-08-21T00:45:36;6.63;;;1.90;;
13712;SDS011;6928;50.546;7.120;2022-08-21T00:48:04;2.22;;;1.65;;
13712;SDS011;6928;50.546;7.120;2022-08-21T00:50:33;3.10;;;1.95;;
13712;SDS011;6928;50.546;7.120;2022-08-21T00:53:06;3.38;;;1.90;;
13712;SDS011;6928;50.546;7.120;2022-08-21T00:55:35;3.38;;;1.80;;
13712;SDS011;6928;50.546;7.120;2022-08-21T00:58:04;2.90;;;1.83;;
13712;SDS011;6928;50.546;7.120;2022-08-21T01:00:36;2.88;;;1.90;;
13712;SDS011;6928;50.546;7.120;2022-08-21T01:03:07;4.63;;;2.00;;
13712;SDS011;6928;50.546;7.120;2022-08-21T01:05:38;2.63;;;1.73;;
13712;SDS011;6928;50.546;7.120;2022-08-21T01:08:06;4.45;;;1.80;;
13712;SDS011;6928;50.546;7.120;2022-08-21T01:10:34;4.57;;;2.17;;
13712;SDS011;6928;50.546;7.120;2022-08-21T01:13:02;1.88;;;1.60;;
13712;SDS011;6928;50.546;7.120;2022-08-21T01:15:33;4.00;;;2.08;;
13712;SDS011;6928;50.546;7.120;2022-08-21T01:18:05;3.35;;;2.03;;
13712;SDS011;6928;50.546;7.120;2022-08-21T01:20:35;4.90;;;1.77;;
13712;SDS011;6928;50.546;7.120;2022-08-21T01:23:09;3.50;;;2.10;;
13712;SDS011;6928;50.546;7.120;2022-08-21T01:25:35;3.72;;;2.03;;
13712;SDS011;6928;50.546;7.120;2022-08-21T01:28:05;5.80;;;2.13;;
13712;SDS011;6928;50.546;7.120;2022-08-21T01:30:39;5.70;;;1.90;;
13712;SDS011;6928;50.546;7.120;2022-08-21T01:33:08;5.68;;;1.88;;
13712;SDS011;6928;50.546;7.120;2022-08-21T01:35:35;3.40;;;2.22;;
13712;SDS011;6928;50.546;7.120;2022-08-21T01:38:02;3.15;;;2.10;;
13712;SDS011;6928;50.546;7.120;2022-08-21T01:40:30;3.40;;;1.95;;
13712;SDS011;6928;50.546;7.120;2022-08-21T01:42:57;3.03;;;1.83;;
13712;SDS011;6928;50.546;7.120;2022-08-21T01:45:24;1.88;;;1.77;;
13712;SDS011;6928;50.546;7.120;2022-08-21T01:47:50;3.92;;;2.22;;
13712;SDS011;6928;50.546;7.120;2022-08-21T01:50:18;2.45;;;1.83;;
13712;SDS011;6928;50.546;7.120;2022-08-21T01:52:46;3.33;;;1.60;;
13712;SDS011;6928;50.546;7.120;2022-08-21T01:55:14;7.38;;;2.33;;
13712;SDS011;6928;50.546;7.120;2022-08-21T01:57:44;3.38;;;2.17;;
13712;SDS011;6928;50.546;7.120;2022-08-21T02:00:13;4.97;;;2.42;;
13712;SDS011;6928;50.546;7.120;2022-08-21T02:02:44;7.32;;;2.10;;
13712;SDS011;6928;50.546;7.120;2022-08-21T02:05:11;5.63;;;2.22;;
13712;SDS011;6928;50.546;7.120;2022-08-21T02:07:39;4.18;;;2.47;;
13712;SDS011;6928;50.546;7.120;2022-08-21T02:10:09;4.85;;;1.80;;
13712;SDS011;6928;50.546;7.120;2022-08-21T02:12:40;2.55;;;1.88;;
13712;SDS011;6928;50.546;7.120;2022-08-21T02:15:08;2.53;;;2.03;;
13712;SDS011;6928;50.546;7.120;2022-08-21T02:17:39;3.30;;;2.05;;
13712;SDS011;6928;50.546;7.120;2022-08-21T02:20:09;7.95;;;1.88;;
13712;SDS011;6928;50.546;7.120;2022-08-21T02:22:37;5.40;;;1.95;;
13712;SDS011;6928;50.546;7.120;2022-08-21T02:25:04;2.63;;;1.90;;
13712;SDS011;6928;50.546;7.120;2022-08-21T02:27:37;3.13;;;1.77;;
13712;SDS011;6928;50.546;7.120;2022-08-21T02:30:09;4.70;;;2.38;;
13712;SDS011;6928;50.546;7.120;2022-08-21T02:32:38;5.20;;;2.17;;
13712;SDS011;6928;50.546;7.120;2022-08-21T02:35:05;5.10;;;2.17;;
13712;SDS011;6928;50.546;7.120;2022-08-21T02:37:33;4.90;;;1.88;;
13712;SDS011;6928;50.546;7.120;2022-08-21T02:40:00;2.78;;;2.03;;
13712;SDS011;6928;50.546;7.120;2022-08-21T02:42:27;3.90;;;2.05;;
13712;SDS011;6928;50.546;7.120;2022-08-21T02:44:55;2.60;;;2.00;;
13712;SDS011;6928;50.546;7.120;2022-08-21T02:47:23;3.17;;;2.00;;
13712;SDS011;6928;50.546;7.120;2022-08-21T02:49:49;5.82;;;2.28;;
13712;SDS011;6928;50.546;7.120;2022-08-21T02:52:17;3.97;;;1.90;;
13712;SDS011;6928;50.546;7.120;2022-08-21T02:54:44;2.13;;;1.90;;
13712;SDS011;6928;50.546;7.120;2022-08-21T02:57:11;4.50;;;2.42;;
13712;SDS011;6928;50.546;7.120;2022-08-21T02:59:37;5.53;;;2.30;;
13712;SDS011;6928;50.546;7.120;2022-08-21T03:02:05;2.55;;;2.00;;
13712;SDS011;6928;50.546;7.120;2022-08-21T03:04:33;3.53;;;2.10;;
13712;SDS011;6928;50.546;7.120;2022-08-21T03:07:00;7.35;;;2.13;;
13712;SDS011;6928;50.546;7.120;2022-08-21T03:09:27;3.58;;;2.13;;
13712;SDS011;6928;50.546;7.120;2022-08-21T03:11:54;8.27;;;2.22;;
13712;SDS011;6928;50.546;7.120;2022-08-21T03:14:20;5.85;;;1.80;;
13712;SDS011;6928;50.546;7.120;2022-08-21T03:16:47;6.65;;;2.00;;
13712;SDS011;6928;50.546;7.120;2022-08-21T03:19:14;4.82;;;2.50;;
13712;SDS011;6928;50.546;7.120;2022-08-21T03:21:43;4.10;;;2.40;;
13712;SDS011;6928;50.546;7.120;2022-08-21T03:24:09;4.63;;;2.08;;
13712;SDS011;6928;50.546;7.120;2022-08-21T03:26:36;3.95;;;2.28;;
13712;SDS011;6928;50.546;7.120;2022-08-21T03:29:03;2.85;;;1.73;;
13712;SDS011;6928;50.546;7.120;2022-08-21T03:31:30;2.85;;;2.03;;
13712;SDS011;6928;50.546;7.120;2022-08-21T03:33:57;3.55;;;2.25;;
13712;SDS011;6928;50.546;7.120;2022-08-21T03:36:24;2.22;;;1.90;;
13712;SDS011;6928;50.546;7.120;2022-08-21T03:38:52;3.20;;;2.10;;
13712;SDS011;6928;50.546;7.120;2022-08-21T03:41:19;6.25;;;2.15;;
13712;SDS011;6928;50.546;7.120;2022-08-21T03:43:46;2.90;;;1.75;;
13712;SDS011;6928;50.546;7.120;2022-08-21T03:46:13;5.60;;;2.17;;
13712;SDS011;6928;50.546;7.120;2022-08-21T03:48:40;6.57;;;2.20;;
13712;SDS011;6928;50.546;7.120;2022-08-21T03:51:07;1.85;;;1.67;;
13712;SDS011;6928;50.546;7.120;2022-08-21T03:53:33;2.88;;;1.80;;
13712;SDS011;6928;50.546;7.120;2022-08-21T03:56:02;2.00;;;1.80;;
13712;SDS011;6928;50.546;7.120;2022-08-21T03:58:30;7.00;;;2.13;;
13712;SDS011;6928;50.546;7.120;2022-08-21T04:00:58;3.95;;;2.35;;
13712;SDS011;6928;50.546;7.120;2022-08-21T04:03:27;2.95;;;1.80;;
13712;SDS011;6928;50.546;7.120;2022-08-21T04:05:54;2.58;;;1.92;;
13712;SDS011;6928;50.546;7.120;2022-08-21T04:08:21;3.55;;;1.90;;
13712;SDS011;6928;50.546;7.120;2022-08-21T04:10:48;4.07;;;2.10;;
13712;SDS011;6928;50.546;7.120;2022-08-21T04:13:19;2.75;;;2.03;;
13712;SDS011;6928;50.546;7.120;2022-08-21T04:15:47;3.08;;;1.98;;
13712;SDS011;6928;50.546;7.120;2022-08-21T04:18:14;1.80;;;1.70;;
13712;SDS011;6928;50.546;7.120;2022-08-21T04:20:42;4.82;;;2.33;;
13712;SDS011;6928;50.546;7.120;2022-08-21T04:23:11;4.60;;;2.05;;
13712;SDS011;6928;50.546;7.120;2022-08-21T04:25:37;2.78;;;1.95;;
13712;SDS011;6928;50.546;7.120;2022-08-21T04:28:04;2.88;;;2.00;;
13712;SDS011;6928;50.546;7.120;2022-08-21T04:30:32;7.95;;;2.20;;
13712;SDS011;6928;50.546;7.120;2022-08-21T04:33:00;2.30;;;2.10;;
13712;SDS011;6928;50.546;7.120;2022-08-21T04:35:28;2.17;;;2.00;;
13712;SDS011;6928;50.546;7.120;2022-08-21T04:37:55;2.80;;;2.30;;
13712;SDS011;6928;50.546;7.120;2022-08-21T04:40:23;3.92;;;2.22;;
13712;SDS011;6928;50.546;7.120;2022-08-21T04:42:53;4.00;;;1.83;;
13712;SDS011;6928;50.546;7.120;2022-08-21T04:45:23;4.47;;;2.30;;
13712;SDS011;6928;50.546;7.120;2022-08-21T04:47:55;3.60;;;2.15;;
13712;SDS011;6928;50.546;7.120;2022-08-21T04:50:26;6.75;;;2.10;;
13712;SDS011;6928;50.546;7.120;2022-08-21T04:52:57;2.60;;;2.00;;
13712;SDS011;6928;50.546;7.120;2022-08-21T04:55:25;5.00;;;2.08;;
13712;SDS011;6928;50.546;7.120;2022-08-21T04:57:53;3.92;;;2.00;;
13712;SDS011;6928;50.546;7.120;2022-08-21T05:00:20;4.80;;;2.60;;
13712;SDS011;6928;50.546;7.120;2022-08-21T05:02:49;5.88;;;2.30;;
13712;SDS011;6928;50.546;7.120;2022-08-21T05:05:20;3.30;;;2.10;;
13712;SDS011;6928;50.546;7.120;2022-08-21T05:07:47;2.33;;;2.10;;
13712;SDS011;6928;50.546;7.120;2022-08-21T05:10:15;3.60;;;2.15;;
13712;SDS011;6928;50.546;7.120;2022-08-21T05:12:42;4.38;;;2.35;;
13712;SDS011;6928;50.546;7.120;2022-08-21T05:15:09;4.68;;;2.15;;
13712;SDS011;6928;50.546;7.120;2022-08-21T05:17:38;3.58;;;2.20;;
13712;SDS011;6928;50.546;7.120;2022-08-21T05:20:05;3.63;;;2.20;;
13712;SDS011;6928;50.546;7.120;2022-08-21T05:22:34;4.43;;;2.03;;
13712;SDS011;6928;50.546;7.120;2022-08-21T05:25:00;5.40;;;2.38;;
13712;SDS011;6928;50.546;7.120;2022-08-21T05:27:27;4.13;;;2.38;;
13712;SDS011;6928;50.546;7.120;2022-08-21T05:29:55;3.45;;;2.30;;
13712;SDS011;6928;50.546;7.120;2022-08-21T05:32:22;4.25;;;2.40;;
13712;SDS011;6928;50.546;7.120;2022-08-21T05:34:49;2.47;;;2.03;;
13712;SDS011;6928;50.546;7.120;2022-08-21T05:37:16;3.47;;;2.67;;
13712;SDS011;6928;50.546;7.120;2022-08-21T05:39:44;4.40;;;2.08;;
13712;SDS011;6928;50.546;7.120;2022-08-21T05:42:11;5.28;;;2.53;;
13712;SDS011;6928;50.546;7.120;2022-08-21T05:44:38;6.05;;;2.35;;
13712;SDS011;6928;50.546;7.120;2022-08-21T05:47:05;3.67;;;2.22;;
13712;SDS011;6928;50.546;7.120;2022-08-21T05:49:34;4.30;;;2.58;;
13712;SDS011;6928;50.546;7.120;2022-08-21T05:52:02;2.40;;;2.00;;
13712;SDS011;6928;50.546;7.120;2022-08-21T05:54:30;2.53;;;2.33;;
13712;SDS011;6928;50.546;7.120;2022-08-21T05:56:58;3.72;;;2.83;;
13712;SDS011;6928;50.546;7.120;2022-08-21T05:59:25;6.15;;;2.58;;
13712;SDS011;6928;50.546;7.120;2022-08-21T06:01:52;4.60;;;2.78;;
13712;SDS011;6928;50.546;7.120;2022-08-21T06:04:19;2.67;;;2.33;;
13712;SDS011;6928;50.546;7.120;2022-08-21T06:06:46;6.03;;;2.40;;
13712;SDS011;6928;50.546;7.120;2022-08-21T06:09:13;2.63;;;2.35;;
13712;SDS011;6928;50.546;7.120;2022-08-21T06:11:40;2.95;;;2.38;;
13712;SDS011;6928;50.546;7.120;2022-08-21T06:14:08;3.47;;;2.38;;
13712;SDS011;6928;50.546;7.120;2022-08-21T06:16:35;4.82;;;2.60;;
13712;SDS011;6928;50.546;7.120;2022-08-21T06:19:01;5.75;;;3.10;;
13712;SDS011;6928;50.546;7.120;2022-08-21T06:21:28;4.28;;;2.85;;
13712;SDS011;6928;50.546;7.120;2022-08-21T06:23:55;4.57;;;2.85;;
13712;SDS011;6928;50.546;7.120;2022-08-21T06:26:22;4.18;;;2.10;;
13712;SDS011;6928;50.546;7.120;2022-08-21T06:28:49;3.47;;;2.80;;
13712;SDS011;6928;50.546;7.120;2022-08-21T06:31:18;6.22;;;2.78;;
13712;SDS011;6928;50.546;7.120;2022-08-21T06:33:48;4.63;;;2.40;;
13712;SDS011;6928;50.546;7.120;2022-08-21T06:36:15;7.18;;;2.58;;
13712;SDS011;6928;50.546;7.120;2022-08-21T06:38:45;3.10;;;2.55;;
13712;SDS011;6928;50.546;7.120;2022-08-21T06:41:13;3.55;;;2.65;;
13712;SDS011;6928;50.546;7.120;2022-08-21T06:43:40;8.60;;;2.47;;
13712;SDS011;6928;50.546;7.120;2022-08-21T06:46:07;4.50;;;2.92;;
13712;SDS011;6928;50.546;7.120;2022-08-21T06:48:35;3.83;;;2.80;;
13712;SDS011;6928;50.546;7.120;2022-08-21T06:51:02;3.67;;;2.67;;
13712;SDS011;6928;50.546;7.120;2022-08-21T06:53:29;6.88;;;2.40;;
13712;SDS011;6928;50.546;7.120;2022-08-21T06:55:56;6.10;;;2.75;;
13712;SDS011;6928;50.546;7.120;2022-08-21T06:58:23;6.75;;;3.45;;
13712;SDS011;6928;50.546;7.120;2022-08-21T07:00:50;5.88;;;2.78;;
13712;SDS011;6928;50.546;7.120;2022-08-21T07:03:21;5.07;;;2.45;;
13712;SDS011;6928;50.546;7.120;2022-08-21T07:05:52;4.13;;;2.53;;
13712;SDS011;6928;50.546;7.120;2022-08-21T07:08:20;5.50;;;2.97;;
13712;SDS011;6928;50.546;7.120;2022-08-21T07:10:47;4.82;;;2.47;;
13712;SDS011;6928;50.546;7.120;2022-08-21T07:13:15;3.78;;;2.67;;
13712;SDS011;6928;50.546;7.120;2022-08-21T07:15:42;3.85;;;2.53;;
13712;SDS011;6928;50.546;7.120;2022-08-21T07:18:09;3.25;;;2.35;;
13712;SDS011;6928;50.546;7.120;2022-08-21T07:20:38;4.80;;;2.40;;
13712;SDS011;6928;50.546;7.120;2022-08-21T07:23:07;5.07;;;2.75;;
13712;SDS011;6928;50.546;7.120;2022-08-21T07:25:37;4.05;;;2.22;;
13712;SDS011;6928;50.546;7.120;2022-08-21T07:28:04;5.45;;;2.75;;
13712;SDS011;6928;50.546;7.120;2022-08-21T07:30:31;6.03;;;2.72;;
13712;SDS011;6928;50.546;7.120;2022-08-21T07:32:58;3.17;;;2.55;;
13712;SDS011;6928;50.546;7.120;2022-08-21T07:35:24;3.05;;;2.33;;
13712;SDS011;6928;50.546;7.120;2022-08-21T07:37:53;3.45;;;2.47;;
13712;SDS011;6928;50.546;7.120;2022-08-21T07:40:21;3.05;;;2.40;;
13712;SDS011;6928;50.546;7.120;2022-08-21T07:42:48;4.90;;;2.47;;
13712;SDS011;6928;50.546;7.120;2022-08-21T07:45:17;5.20;;;2.60;;
13712;SDS011;6928;50.546;7.120;2022-08-21T07:47:46;3.63;;;2.55;;
13712;SDS011;6928;50.546;7.120;2022-08-21T07:50:14;4.57;;;2.50;;
13712;SDS011;6928;50.546;7.120;2022-08-21T07:52:41;4.65;;;2.35;;
13712;SDS011;6928;50.546;7.120;2022-08-21T07:55:09;5.65;;;2.45;;
13712;SDS011;6928;50.546;7.120;2022-08-21T07:57:40;8.43;;;3.30;;
13712;SDS011;6928;50.546;7.120;2022-08-21T08:00:08;5.53;;;2.85;;
13712;SDS011;6928;50.546;7.120;2022-08-21T08:02:40;4.93;;;2.17;;
13712;SDS011;6928;50.546;7.120;2022-08-21T08:05:11;7.28;;;2.30;;
13712;SDS011;6928;50.546;7.120;2022-08-21T08:07:38;3.78;;;1.90;;
13712;SDS011;6928;50.546;7.120;2022-08-21T08:10:05;5.03;;;2.30;;
13712;SDS011;6928;50.546;7.120;2022-08-21T08:12:34;6.00;;;2.17;;
13712;SDS011;6928;50.546;7.120;2022-08-21T08:15:05;4.07;;;2.38;;
13712;SDS011;6928;50.546;7.120;2022-08-21T08:17:34;2.65;;;2.17;;
13712;SDS011;6928;50.546;7.120;2022-08-21T08:20:03;8.27;;;2.30;;
13712;SDS011;6928;50.546;7.120;2022-08-21T08:22:33;3.20;;;2.20;;
13712;SDS011;6928;50.546;7.120;2022-08-21T08:25:02;5.55;;;2.15;;
13712;SDS011;6928;50.546;7.120;2022-08-21T08:27:30;4.45;;;1.95;;
13712;SDS011;6928;50.546;7.120;2022-08-21T08:29:57;4.30;;;2.13;;
13712;SDS011;6928;50.546;7.120;2022-08-21T08:32:26;4.07;;;2.10;;
13712;SDS011;6928;50.546;7.120;2022-08-21T08:34:52;3.20;;;2.03;;
13712;SDS011;6928;50.546;7.120;2022-08-21T08:37:19;6.60;;;1.83;;
13712;SDS011;6928;50.546;7.120;2022-08-21T08:39:47;4.43;;;2.05;;
13712;SDS011;6928;50.546;7.120;2022-08-21T08:42:14;3.13;;;1.60;;
13712;SDS011;6928;50.546;7.120;2022-08-21T08:44:47;4.32;;;1.77;;
13712;SDS011;6928;50.546;7.120;2022-08-21T08:47:29;6.28;;;1.63;;
13712;SDS011;6928;50.546;7.120;2022-08-21T08:50:02;3.20;;;1.25;;
13712;SDS011;6928;50.546;7.120;2022-08-21T08:52:34;3.13;;;1.20;;
13712;SDS011;6928;50.546;7.120;2022-08-21T08:55:06;2.05;;;1.27;;
13712;SDS011;6928;50.546;7.120;2022-08-21T08:57:37;4.78;;;1.10;;
13712;SDS011;6928;50.546;7.120;2022-08-21T09:00:09;5.72;;;1.60;;
13712;SDS011;6928;50.546;7.120;2022-08-21T09:02:42;3.50;;;1.40;;
13712;SDS011;6928;50.546;7.120;2022-08-21T09:05:15;4.75;;;1.30;;
13712;SDS011;6928;50.546;7.120;2022-08-21T09:07:51;2.20;;;1.30;;
13712;SDS011;6928;50.546;7.120;2022-08-21T09:10:38;2.55;;;1.25;;
13712;SDS011;6928;50.546;7.120;2022-08-21T09:13:15;3.00;;;1.48;;
13712;SDS011;6928;50.546;7.120;2022-08-21T09:15:53;2.40;;;1.17;;
13712;SDS011;6928;50.546;7.120;2022-08-21T09:18:33;5.88;;;1.45;;
13712;SDS011;6928;50.546;7.120;2022-08-21T09:21:13;3.88;;;1.38;;
13712;SDS011;6928;50.546;7.120;2022-08-21T09:23:49;2.13;;;1.15;;
13712;SDS011;6928;50.546;7.120;2022-08-21T09:26:25;3.40;;;1.40;;
13712;SDS011;6928;50.546;7.120;2022-08-21T09:28:59;3.65;;;1.42;;
13712;SDS011;6928;50.546;7.120;2022-08-21T09:31:27;4.45;;;1.45;;
13712;SDS011;6928;50.546;7.120;2022-08-21T09:34:00;4.70;;;1.25;;
13712;SDS011;6928;50.546;7.120;2022-08-21T09:36:33;4.65;;;1.33;;
13712;SDS011;6928;50.546;7.120;2022-08-21T09:39:06;7.28;;;1.40;;
13712;SDS011;6928;50.546;7.120;2022-08-21T09:41:35;2.28;;;1.05;;
13712;SDS011;6928;50.546;7.120;2022-08-21T09:44:03;1.52;;;1.30;;
13712;SDS011;6928;50.546;7.120;2022-08-21T09:46:31;4.63;;;1.30;;
13712;SDS011;6928;50.546;7.120;2022-08-21T09:48:59;4.18;;;1.27;;
13712;SDS011;6928;50.546;7.120;2022-08-21T09:51:30;1.17;;;1.00;;
13712;SDS011;6928;50.546;7.120;2022-08-21T09:54:09;2.45;;;1.15;;
13712;SDS011;6928;50.546;7.120;2022-08-21T09:56:51;2.35;;;1.30;;
13712;SDS011;6928;50.546;7.120;2022-08-21T09:59:39;2.97;;;1.20;;
13712;SDS011;6928;50.546;7.120;2022-08-21T10:02:19;4.28;;;1.90;;
13712;SDS011;6928;50.546;7.120;2022-08-21T10:04:54;2.13;;;1.27;;
13712;SDS011;6928;50.546;7.120;2022-08-21T10:07:25;6.75;;;1.20;;
13712;SDS011;6928;50.546;7.120;2022-08-21T10:09:58;4.35;;;1.33;;
13712;SDS011;6928;50.546;7.120;2022-08-21T10:12:28;2.80;;;1.40;;
13712;SDS011;6928;50.546;7.120;2022-08-21T10:15:16;4.68;;;1.48;;
13712;SDS011;6928;50.546;7.120;2022-08-21T10:17:52;3.03;;;1.38;;
13712;SDS011;6928;50.546;7.120;2022-08-21T10:20:31;2.63;;;1.10;;
13712;SDS011;6928;50.546;7.120;2022-08-21T10:23:08;2.28;;;1.00;;
13712;SDS011;6928;50.546;7.120;2022-08-21T10:25:55;2.35;;;1.25;;
13712;SDS011;6928;50.546;7.120;2022-08-21T10:28:29;8.63;;;1.27;;
13712;SDS011;6928;50.546;7.120;2022-08-21T10:31:07;3.42;;;1.15;;
13712;SDS011;6928;50.546;7.120;2022-08-21T10:33:45;3.03;;;1.15;;
13712;SDS011;6928;50.546;7.120;2022-08-21T10:36:21;4.93;;;1.25;;
13712;SDS011;6928;50.546;7.120;2022-08-21T10:38:58;3.45;;;1.15;;
13712;SDS011;6928;50.546;7.120;2022-08-21T10:41:39;4.68;;;1.45;;
13712;SDS011;6928;50.546;7.120;2022-08-21T10:44:30;1.13;;;1.02;;
13712;SDS011;6928;50.546;7.120;2022-08-21T10:47:05;4.32;;;1.20;;
13712;SDS011;6928;50.546;7.120;2022-08-21T10:49:39;2.10;;;1.15;;
13712;SDS011;6928;50.546;7.120;2022-08-21T10:55:30;4.90;;;1.55;;
13712;SDS011;6928;50.546;7.120;2022-08-21T10:58:02;3.38;;;1.20;;
13712;SDS011;6928;50.546;7.120;2022-08-21T11:00:36;2.42;;;1.10;;
13712;SDS011;6928;50.546;7.120;2022-08-21T11:03:10;2.53;;;0.93;;
13712;SDS011;6928;50.546;7.120;2022-08-21T11:05:45;1.77;;;1.00;;
13712;SDS011;6928;50.546;7.120;2022-08-21T11:08:19;2.20;;;1.23;;
13712;SDS011;6928;50.546;7.120;2022-08-21T11:10:53;2.35;;;1.38;;
13712;SDS011;6928;50.546;7.120;2022-08-21T11:13:27;2.15;;;1.00;;
13712;SDS011;6928;50.546;7.120;2022-08-21T11:16:02;2.15;;;1.05;;
13712;SDS011;6928;50.546;7.120;2022-08-21T11:18:37;1.92;;;1.10;;
13712;SDS011;6928;50.546;7.120;2022-08-21T11:21:15;4.32;;;1.10;;
13712;SDS011;6928;50.546;7.120;2022-08-21T11:23:59;1.63;;;1.00;;
13712;SDS011;6928;50.546;7.120;2022-08-21T11:26:40;3.78;;;1.40;;
13712;SDS011;6928;50.546;7.120;2022-08-21T11:29:13;3.03;;;1.10;;
13712;SDS011;6928;50.546;7.120;2022-08-21T11:31:51;3.22;;;1.13;;
13712;SDS011;6928;50.546;7.120;2022-08-21T11:34:53;1.23;;;0.90;;
13712;SDS011;6928;50.546;7.120;2022-08-21T11:37:33;3.20;;;1.20;;
13712;SDS011;6928;50.546;7.120;2022-08-21T11:40:16;2.33;;;1.02;;
13712;SDS011;6928;50.546;7.120;2022-08-21T11:42:59;1.58;;;1.00;;
13712;SDS011;6928;50.546;7.120;2022-08-21T11:45:37;1.48;;;0.90;;
13712;SDS011;6928;50.546;7.120;2022-08-21T11:48:14;2.38;;;1.10;;
13712;SDS011;6928;50.546;7.120;2022-08-21T11:50:55;2.65;;;0.95;;
13712;SDS011;6928;50.546;7.120;2022-08-21T11:53:24;2.22;;;0.90;;
13712;SDS011;6928;50.546;7.120;2022-08-21T11:55:59;2.25;;;0.80;;
13712;SDS011;6928;50.546;7.120;2022-08-21T11:58:32;2.03;;;1.00;;
13712;SDS011;6928;50.546;7.120;2022-08-21T12:01:05;1.90;;;0.80;;
13712;SDS011;6928;50.546;7.120;2022-08-21T12:03:36;1.73;;;1.00;;
13712;SDS011;6928;50.546;7.120;2022-08-21T12:06:08;1.30;;;1.05;;
13712;SDS011;6928;50.546;7.120;2022-08-21T12:08:38;2.25;;;1.38;;
13712;SDS011;6928;50.546;7.120;2022-08-21T12:11:09;4.47;;;1.17;;
13712;SDS011;6928;50.546;7.120;2022-08-21T12:13:53;4.65;;;1.02;;
13712;SDS011;6928;50.546;7.120;2022-08-21T12:16:28;3.65;;;1.30;;
13712;SDS011;6928;50.546;7.120;2022-08-21T12:19:04;2.45;;;0.98;;
13712;SDS011;6928;50.546;7.120;2022-08-21T12:21:34;1.52;;;0.82;;
13712;SDS011;6928;50.546;7.120;2022-08-21T12:24:17;1.92;;;0.90;;
13712;SDS011;6928;50.546;7.120;2022-08-21T12:27:01;2.70;;;0.95;;
13712;SDS011;6928;50.546;7.120;2022-08-21T12:29:55;2.30;;;0.80;;
13712;SDS011;6928;50.546;7.120;2022-08-21T12:32:27;1.80;;;1.00;;
13712;SDS011;6928;50.546;7.120;2022-08-21T12:34:57;1.90;;;0.88;;
13712;SDS011;6928;50.546;7.120;2022-08-21T12:37:34;1.48;;;0.82;;
13712;SDS011;6928;50.546;7.120;2022-08-21T12:40:10;4.70;;;0.80;;
13712;SDS011;6928;50.546;7.120;2022-08-21T12:42:48;1.63;;;0.80;;
13712;SDS011;6928;50.546;7.120;2022-08-21T12:45:19;0.80;;;0.70;;
13712;SDS011;6928;50.546;7.120;2022-08-21T12:47:55;1.35;;;0.82;;
13712;SDS011;6928;50.546;7.120;2022-08-21T12:50:26;2.33;;;0.90;;
13712;SDS011;6928;50.546;7.120;2022-08-21T12:53:02;1.05;;;0.80;;
13712;SDS011;6928;50.546;7.120;2022-08-21T12:55:35;4.00;;;1.05;;
13712;SDS011;6928;50.546;7.120;2022-08-21T12:58:17;1.60;;;0.80;;
13712;SDS011;6928;50.546;7.120;2022-08-21T13:00:47;2.35;;;1.10;;
13712;SDS011;6928;50.546;7.120;2022-08-21T13:03:17;1.60;;;0.63;;
13712;SDS011;6928;50.546;7.120;2022-08-21T13:05:45;2.83;;;1.10;;
13712;SDS011;6928;50.546;7.120;2022-08-21T13:08:12;2.05;;;0.80;;
13712;SDS011;6928;50.546;7.120;2022-08-21T13:10:40;0.90;;;0.68;;
13712;SDS011;6928;50.546;7.120;2022-08-21T13:13:10;1.35;;;0.80;;
13712;SDS011;6928;50.546;7.120;2022-08-21T13:15:45;1.35;;;0.80;;
13712;SDS011;6928;50.546;7.120;2022-08-21T13:18:19;1.90;;;0.82;;
13712;SDS011;6928;50.546;7.120;2022-08-21T13:20:48;2.08;;;0.95;;
13712;SDS011;6928;50.546;7.120;2022-08-21T13:23:19;4.28;;;0.93;;
13712;SDS011;6928;50.546;7.120;2022-08-21T13:25:49;1.50;;;0.88;;
13712;SDS011;6928;50.546;7.120;2022-08-21T13:28:17;1.35;;;0.57;;
13712;SDS011;6928;50.546;7.120;2022-08-21T13:30:46;1.08;;;0.90;;
13712;SDS011;6928;50.546;7.120;2022-08-21T13:33:16;2.00;;;0.70;;
13712;SDS011;6928;50.546;7.120;2022-08-21T13:35:50;2.45;;;0.80;;
13712;SDS011;6928;50.546;7.120;2022-08-21T13:38:32;1.35;;;0.60;;
13712;SDS011;6928;50.546;7.120;2022-08-21T13:41:02;1.50;;;0.85;;
13712;SDS011;6928;50.546;7.120;2022-08-21T13:43:32;1.10;;;1.00;;
13712;SDS011;6928;50.546;7.120;2022-08-21T13:46:06;2.60;;;1.23;;
13712;SDS011;6928;50.546;7.120;2022-08-21T13:48:36;3.42;;;0.95;;
13712;SDS011;6928;50.546;7.120;2022-08-21T13:51:04;2.25;;;1.00;;
13712;SDS011;6928;50.546;7.120;2022-08-21T13:53:33;3.00;;;0.82;;
13712;SDS011;6928;50.546;7.120;2022-08-21T13:56:03;3.75;;;0.80;;
13712;SDS011;6928;50.546;7.120;2022-08-21T13:58:31;1.20;;;0.75;;
13712;SDS011;6928;50.546;7.120;2022-08-21T14:01:15;0.80;;;0.60;;
13712;SDS011;6928;50.546;7.120;2022-08-21T14:03:47;4.07;;;1.00;;
13712;SDS011;6928;50.546;7.120;2022-08-21T14:06:17;1.58;;;0.82;;
13712;SDS011;6928;50.546;7.120;2022-08-21T14:08:47;1.80;;;0.93;;
13712;SDS011;6928;50.546;7.120;2022-08-21T14:11:18;2.80;;;0.75;;
13712;SDS011;6928;50.546;7.120;2022-08-21T14:13:47;1.85;;;0.80;;
13712;SDS011;6928;50.546;7.120;2022-08-21T14:16:18;2.45;;;0.98;;
13712;SDS011;6928;50.546;7.120;2022-08-21T14:18:49;1.67;;;1.05;;
13712;SDS011;6928;50.546;7.120;2022-08-21T14:21:24;2.30;;;0.80;;
13712;SDS011;6928;50.546;7.120;2022-08-21T14:23:59;3.20;;;0.80;;
13712;SDS011;6928;50.546;7.120;2022-08-21T14:26:29;1.83;;;0.93;;
13712;SDS011;6928;50.546;7.120;2022-08-21T14:28:58;1.80;;;0.80;;
13712;SDS011;6928;50.546;7.120;2022-08-21T14:31:29;1.08;;;0.70;;
13712;SDS011;6928;50.546;7.120;2022-08-21T14:33:59;1.33;;;0.80;;
13712;SDS011;6928;50.546;7.120;2022-08-21T14:36:27;0.60;;;0.60;;
13712;SDS011;6928;50.546;7.120;2022-08-21T14:38:54;3.20;;;1.13;;
13712;SDS011;6928;50.546;7.120;2022-08-21T14:41:22;1.38;;;0.63;;
13712;SDS011;6928;50.546;7.120;2022-08-21T14:43:51;1.10;;;0.80;;
13712;SDS011;6928;50.546;7.120;2022-08-21T14:46:20;2.25;;;0.90;;
13712;SDS011;6928;50.546;7.120;2022-08-21T14:48:52;5.53;;;0.80;;
13712;SDS011;6928;50.546;7.120;2022-08-21T14:51:20;1.67;;;0.70;;
13712;SDS011;6928;50.546;7.120;2022-08-21T14:53:47;0.60;;;0.60;;
13712;SDS011;6928;50.546;7.120;2022-08-21T14:56:14;1.95;;;1.30;;
13712;SDS011;6928;50.546;7.120;2022-08-21T14:58:42;0.98;;;0.80;;
13712;SDS011;6928;50.546;7.120;2022-08-21T15:01:12;1.85;;;0.90;;
13712;SDS011;6928;50.546;7.120;2022-08-21T15:03:40;2.72;;;0.80;;
13712;SDS011;6928;50.546;7.120;2022-08-21T15:06:12;1.20;;;0.70;;
13712;SDS011;6928;50.546;7.120;2022-08-21T15:08:39;1.70;;;0.73;;
13712;SDS011;6928;50.546;7.120;2022-08-21T15:11:06;1.90;;;0.77;;
13712;SDS011;6928;50.546;7.120;2022-08-21T15:13:35;1.52;;;0.85;;
13712;SDS011;6928;50.546;7.120;2022-08-21T15:16:03;1.02;;;0.65;;
13712;SDS011;6928;50.546;7.120;2022-08-21T15:18:30;2.47;;;0.70;;
13712;SDS011;6928;50.546;7.120;2022-08-21T15:20:57;1.83;;;0.77;;
13712;SDS011;6928;50.546;7.120;2022-08-21T15:23:26;5.13;;;0.80;;